Time;durP1;ratioP1;P1;durP2;ratioP2;P2;SDS_P1;SDS_P2;PMS_P1;PMS_P2;Temp;Humidity;BMP_temperature;BMP_pressure;BME280_temperature;BME280_humidity;BME280_pressure;Samples;Min_cycle;Max_cycle;Signal;HPM_P1;HPM_P2
2022/06/15 00:01:28;;;;;;;15.40;8.10;;;;;;;10.85;83.98;101854.38;5013140;28;20505;-85
2022/06/15 00:03:55;;;;;;;11.70;7.20;;;;;;;11.30;84.05;101940.94;4996124;28;20116;-86
2022/06/15 00:06:29;;;;;;;14.13;7.40;;;;;;;10.33;84.17;101787.09;4995833;28;20378;-84
2022/06/15 00:08:56;;;;;;;10.52;7.68;;;;;;;11.16;84.60;101945.03;5013467;28;20030;-86
2022/06/15 00:11:25;;;;;;;12.85;7.97;;;;;;;11.19;84.33;101950.06;5013432;28;20106;-87
2022/06/15 00:14:34;;;;;;;15.57;8.20;;;;;;;10.13;83.87;101763.88;4995421;28;20026;-84
2022/06/15 00:17:03;;;;;;;14.63;8.43;;;;;;;9.83;85.05;101717.09;4933473;29;20111;-84
2022/06/15 00:19:34;;;;;;;13.15;8.70;;;;;;;10.04;84.84;101768.59;4917722;29;20353;-83
2022/06/15 00:21:59;;;;;;;15.07;9.27;;;;;;;9.87;84.99;101742.72;4917774;29;20036;-86
2022/06/15 00:24:25;;;;;;;12.77;9.13;;;;;;;10.75;84.55;101887.56;4933703;29;20032;-87
2022/06/15 00:27:10;;;;;;;14.18;8.43;;;;;;;11.03;84.91;101938.78;4933501;29;20036;-86
2022/06/15 00:29:37;;;;;;;14.52;8.85;;;;;;;10.46;84.99;101845.00;4933065;29;20036;-86
2022/06/15 00:32:04;;;;;;;16.30;9.70;;;;;;;10.94;85.12;101928.88;4933490;29;20032;-84
2022/06/15 00:34:30;;;;;;;13.90;9.38;;;;;;;10.57;85.54;101868.56;4933417;29;20076;-84
2022/06/15 00:36:55;;;;;;;17.95;9.27;;;;;;;10.57;85.58;101870.31;4917620;29;20027;-84
2022/06/15 00:39:21;;;;;;;13.60;9.10;;;;;;;10.57;85.83;101881.50;4917440;29;20135;-84
2022/06/15 00:41:46;;;;;;;14.18;9.32;;;;;;;10.76;86.14;101915.06;4933450;29;20586;-87
2022/06/15 00:44:26;;;;;;;14.73;9.23;;;;;;;10.83;86.35;101926.78;4933183;29;20035;-84
2022/06/15 00:46:58;;;;;;;17.05;9.70;;;;;;;10.57;86.23;101878.06;4933266;29;20044;-83
2022/06/15 00:49:35;;;;;;;14.15;9.43;;;;;;;10.44;86.15;101864.91;4933510;29;20031;-84
2022/06/15 00:52:07;;;;;;;15.05;9.13;;;;;;;10.75;86.93;101928.91;4933149;29;20048;-83
2022/06/15 00:54:32;;;;;;;14.48;9.32;;;;;;;10.72;86.95;101925.63;5013075;28;20033;-84
2022/06/15 00:56:58;;;;;;;14.00;9.50;;;;;;;10.62;87.16;101907.97;4995407;28;20026;-83
2022/06/15 00:59:30;;;;;;;18.20;10.52;;;;;;;10.71;87.17;101917.00;5012737;28;20029;-84
2022/06/15 01:01:56;;;;;;;14.00;9.15;;;;;;;10.51;86.53;101881.75;4995199;28;20033;-84
2022/06/15 01:04:23;;;;;;;16.67;10.02;;;;;;;10.67;86.62;101909.47;5012782;28;20397;-84
2022/06/15 01:10:20;;;;;;;12.73;10.13;;;;;;;10.60;87.03;101912.34;4933762;29;20042;-83
2022/06/15 01:13:40;;;;;;;15.93;9.48;;;;;;;10.16;86.63;101841.19;4933075;29;20472;-84
2022/06/15 01:16:47;;;;;;;14.02;9.73;;;;;;;9.85;86.54;101790.97;4933323;29;20047;-84
2022/06/15 01:19:41;;;;;;;14.43;8.77;;;;;;;10.04;86.63;101825.38;4932811;29;20117;-83
2022/06/15 01:22:45;;;;;;;13.82;9.57;;;;;;;9.32;86.67;101706.47;4932838;29;20043;-84
2022/06/15 01:25:49;;;;;;;11.95;8.80;;;;;;;9.23;86.52;101691.41;4876451;29;20091;-84
2022/06/15 01:28:36;;;;;;;13.25;8.63;;;;;;;10.51;86.54;101912.75;4876494;29;20041;-83
2022/06/15 01:32:06;;;;;;;16.05;9.02;;;;;;;10.07;86.89;101845.88;4876623;29;20065;-84
2022/06/15 01:35:05;;;;;;;15.18;9.25;;;;;;;10.39;87.21;101907.31;4857813;29;20098;-84
2022/06/15 01:37:56;;;;;;;13.73;9.07;;;;;;;9.08;87.65;101697.25;4857773;29;20041;-86
2022/06/15 01:40:47;;;;;;;15.23;8.85;;;;;;;9.22;87.70;101733.53;4841855;29;20430;-84
2022/06/15 01:43:50;;;;;;;13.60;9.45;;;;;;;10.26;87.21;101907.03;4925655;23;20429;-84
2022/06/15 01:46:22;;;;;;;14.40;9.25;;;;;;;8.88;88.06;101683.47;4998380;28;20041;-84
2022/06/15 01:48:56;;;;;;;14.25;9.07;;;;;;;10.20;88.60;101913.25;5015756;28;20133;-84
2022/06/15 01:51:42;;;;;;;16.27;9.30;;;;;;;8.80;87.91;101667.50;5016161;28;20390;-83
2022/06/15 01:54:12;;;;;;;15.73;10.30;;;;;;;8.95;87.93;101696.06;4998141;28;20485;-86
2022/06/15 01:56:42;;;;;;;15.07;9.68;;;;;;;8.80;88.53;101675.22;4998108;28;20033;-87
2022/06/15 01:59:29;;;;;;;16.50;10.07;;;;;;;10.06;88.45;101882.91;5020283;23;20056;-86
2022/06/15 02:02:21;;;;;;;12.32;9.65;;;;;;;9.54;88.22;101795.75;4998116;28;20449;-86
2022/06/15 02:05:22;;;;;;;16.13;10.73;;;;;;;9.02;88.36;101703.47;5015609;28;20030;-87
2022/06/15 02:08:03;;;;;;;13.85;10.18;;;;;;;10.16;88.72;101892.81;5015657;28;20022;-86
2022/06/15 02:13:54;;;;;;;14.68;9.93;;;;;;;8.67;88.93;101647.47;5015643;28;20547;-84
2022/06/15 02:16:40;;;;;;;16.85;10.20;;;;;;;9.47;88.67;101798.63;5015589;28;20064;-84
2022/06/15 02:19:09;;;;;;;19.50;10.85;;;;;;;10.04;89.18;101883.88;5015137;28;20500;-86
2022/06/15 02:21:41;;;;;;;16.13;10.25;;;;;;;9.73;89.59;101827.59;5015188;28;20466;-84
2022/06/15 02:24:24;;;;;;;18.77;10.00;;;;;;;8.67;89.03;101650.91;5015055;28;20034;-83
2022/06/15 02:26:52;;;;;;;18.27;11.18;;;;;;;8.86;89.06;101664.66;5015347;28;20049;-85
2022/06/15 02:29:30;;;;;;;14.65;10.55;;;;;;;8.90;88.78;101676.50;4997443;28;20041;-84
2022/06/15 02:32:07;;;;;;;16.73;10.45;;;;;;;8.83;88.58;101669.94;5015343;28;20017;-83
2022/06/15 02:34:39;;;;;;;15.85;11.15;;;;;;;9.15;88.89;101711.53;5015026;28;20022;-84
2022/06/15 02:37:09;;;;;;;19.38;11.27;;;;;;;8.90;89.33;101686.81;5014985;28;20018;-83
2022/06/15 02:39:50;;;;;;;18.50;11.18;;;;;;;8.81;89.05;101670.91;5015162;28;20026;-84
2022/06/15 02:42:47;;;;;;;18.67;10.75;;;;;;;8.55;89.38;101644.53;5015006;28;20034;-84
2022/06/15 02:45:34;;;;;;;16.75;10.65;;;;;;;9.98;89.81;101879.81;4999517;28;20041;-84
2022/06/15 02:48:18;;;;;;;18.48;11.32;;;;;;;8.70;89.32;101657.63;5015031;28;20046;-84
2022/06/15 02:51:32;;;;;;;17.45;10.60;;;;;;;8.79;88.92;101686.41;4996312;28;20033;-84
2022/06/15 02:54:35;;;;;;;21.15;11.95;;;;;;;8.65;89.26;101656.97;4918550;29;20046;-84
2022/06/15 02:57:12;;;;;;;20.98;11.23;;;;;;;9.27;89.41;101757.41;4935324;29;20035;-84
2022/06/15 02:59:49;;;;;;;20.23;11.00;;;;;;;9.44;89.73;101785.03;4934252;29;20051;-83
2022/06/15 03:02:19;;;;;;;17.13;11.38;;;;;;;8.84;89.98;101693.94;4935045;29;20058;-83
2022/06/15 03:04:54;;;;;;;18.05;11.15;;;;;;;8.81;89.81;101682.03;4918743;29;20032;-84
2022/06/15 03:07:28;;;;;;;17.65;11.52;;;;;;;8.57;89.67;101647.03;4934948;29;20476;-83
2022/06/15 03:09:53;;;;;;;15.98;11.07;;;;;;;8.96;90.13;101720.94;4919128;29;20472;-84
2022/06/15 03:12:27;;;;;;;23.45;12.52;;;;;;;8.48;90.73;101631.97;4934941;29;20039;-83
2022/06/15 03:15:03;;;;;;;18.77;11.15;;;;;;;8.61;90.29;101657.13;4934862;29;20547;-86
2022/06/15 03:17:37;;;;;;;19.27;12.57;;;;;;;9.09;90.41;101740.97;4934710;29;20507;-86
2022/06/15 03:20:12;;;;;;;19.95;11.82;;;;;;;9.11;90.78;101735.75;4934477;29;20042;-86
2022/06/15 03:22:48;;;;;;;19.33;11.65;;;;;;;8.52;90.48;101648.94;4934532;29;20063;-86
2022/06/15 03:25:23;;;;;;;19.65;12.05;;;;;;;9.13;90.47;101729.63;4934427;29;20233;-86
2022/06/15 03:27:58;;;;;;;19.10;12.55;;;;;;;8.57;90.29;101634.16;4934551;29;20035;-86
2022/06/15 03:30:33;;;;;;;20.55;12.35;;;;;;;9.37;90.23;101757.84;4953982;28;20121;-86
2022/06/15 03:33:19;;;;;;;20.35;11.68;;;;;;;9.43;89.95;101779.03;4994536;28;20049;-85
2022/06/15 03:35:57;;;;;;;22.25;12.48;;;;;;;9.43;90.01;101773.03;4994230;28;20034;-86
2022/06/15 03:38:35;;;;;;;23.90;13.02;;;;;;;8.63;90.06;101632.13;4994222;28;20435;-86
2022/06/15 03:41:17;;;;;;;19.55;12.32;;;;;;;9.55;89.87;101776.84;4976708;28;20027;-86
2022/06/15 03:43:43;;;;;;;22.05;11.85;;;;;;;9.01;89.57;101694.06;4994224;28;20061;-85
2022/06/15 03:46:18;;;;;;;24.73;14.18;;;;;;;9.39;89.75;101750.88;4976403;28;20027;-85
2022/06/15 03:49:02;;;;;;;19.40;11.93;;;;;;;8.76;89.08;101647.94;4994364;28;20031;-83
2022/06/15 03:54:15;;;;;;;20.35;13.18;;;;;;;8.92;89.04;101648.09;4896019;29;20042;-83
2022/06/15 03:57:04;;;;;;;22.75;13.13;;;;;;;10.29;88.98;101868.16;4896059;29;20523;-85
2022/06/15 03:59:31;;;;;;;21.77;13.48;;;;;;;8.99;88.79;101643.53;4971611;23;20096;-86
2022/06/15 04:02:02;;;;;;;20.95;13.52;;;;;;;9.82;88.51;101778.19;5013109;28;20071;-83
2022/06/15 04:04:46;;;;;;;22.88;13.85;;;;;;;9.05;87.92;101633.81;5013234;28;20029;-83
2022/06/15 04:09:56;;;;;;;23.85;13.18;;;;;;;10.03;87.89;101779.81;5013432;28;20061;-84
2022/06/15 04:12:39;;;;;;;25.73;13.93;;;;;;;9.92;87.14;101745.91;5013371;28;20541;-83
2022/06/15 04:15:24;;;;;;;26.90;14.77;;;;;;;9.45;87.18;101653.50;5012976;28;20466;-83
2022/06/15 04:17:56;;;;;;;20.95;13.63;;;;;;;9.38;86.63;101620.31;5013019;28;20132;-84
2022/06/15 04:20:36;;;;;;;26.58;13.75;;;;;;;9.75;85.92;101647.84;5013089;28;20026;-83
2022/06/15 04:23:26;;;;;;;21.05;14.00;;;;;;;11.64;85.28;101868.53;4951773;29;20071;-85
2022/06/15 04:26:04;;;;;;;24.17;13.30;;;;;;;11.81;80.88;101676.22;4952604;29;20110;-84
2022/06/15 04:28:32;;;;;;;20.52;12.80;;;;;;;13.84;74.22;101768.06;4952663;29;20031;-84
2022/06/15 04:31:00;;;;;;;17.80;11.60;;;;;;;15.56;70.42;101859.28;4952680;29;20038;-84
2022/06/15 04:33:28;;;;;;;22.58;10.90;;;;;;;16.60;64.87;101858.06;4952792;29;20175;-83
2022/06/15 04:35:54;;;;;;;15.25;10.45;;;;;;;16.37;62.12;101718.94;4952557;28;20038;-84
2022/06/15 04:38:23;;;;;;;23.33;10.80;;;;;;;17.67;61.06;101852.75;4952413;29;20515;-84
2022/06/15 04:40:48;;;;;;;18.70;10.02;;;;;;;17.55;58.24;101720.50;4952350;29;20028;-84
2022/06/15 04:43:17;;;;;;;18.63;9.20;;;;;;;17.95;55.99;101711.19;4936281;29;20043;-84
2022/06/15 04:45:55;;;;;;;23.40;10.10;;;;;;;17.61;58.43;101686.91;4952416;29;20035;-84
2022/06/15 04:48:21;;;;;;;18.98;9.27;;;;;;;17.19;57.45;101741.47;4952422;28;20511;-83
2022/06/15 04:50:55;;;;;;;17.63;10.63;;;;;;;16.04;60.75;101680.56;4936217;29;20027;-84
2022/06/15 04:53:27;;;;;;;20.40;10.45;;;;;;;15.72;61.50;101675.03;4949160;28;20088;-84
2022/06/15 04:55:55;;;;;;;20.80;10.90;;;;;;;15.47;62.12;101712.34;5012579;28;20436;-84
2022/06/15 04:58:33;;;;;;;19.38;10.70;;;;;;;16.47;61.67;101721.72;4994198;28;20477;-85
2022/06/15 05:01:00;;;;;;;21.30;10.55;;;;;;;18.62;56.96;101867.91;5012672;28;20436;-85
2022/06/15 05:03:37;;;;;;;16.35;10.38;;;;;;;18.82;55.42;101690.16;4994996;28;20034;-83
2022/06/15 05:06:26;;;;;;;21.70;10.45;;;;;;;20.22;51.07;101683.13;5012314;28;20144;-85
2022/06/15 05:08:51;;;;;;;18.25;9.35;;;;;;;22.38;46.92;101855.63;5012524;28;20041;-84
2022/06/15 05:11:16;;;;;;;19.38;9.43;;;;;;;22.46;45.60;101766.22;4995068;28;20018;-87
2022/06/15 05:13:42;;;;;;;22.23;10.00;;;;;;;23.04;42.33;101691.94;4998267;23;20149;-86
2022/06/15 05:16:19;;;;;;;14.45;9.30;;;;;;;23.55;44.22;101691.97;4996972;28;20061;-82
2022/06/15 05:18:45;;;;;;;20.42;9.88;;;;;;;24.45;39.18;101740.47;5016498;23;20165;-82
2022/06/15 05:21:16;;;;;;;19.38;10.13;;;;;;;25.49;38.45;101833.00;5184884;23;20041;-82
2022/06/15 05:23:47;;;;;;;17.58;9.48;;;;;;;25.76;38.11;101860.88;5016074;28;20030;-82
2022/06/15 05:26:13;;;;;;;17.48;9.77;;;;;;;26.16;37.04;101822.00;4998825;28;20060;-82
2022/06/15 05:28:41;;;;;;;18.20;9.57;;;;;;;26.03;36.71;101843.72;4999001;28;20026;-82
2022/06/15 05:31:16;;;;;;;17.15;9.63;;;;;;;26.09;37.28;101840.41;5016171;28;20022;-81
2022/06/15 05:33:42;;;;;;;20.00;9.75;;;;;;;26.41;36.45;101857.13;5015158;28;20072;-82
2022/06/15 05:36:14;;;;;;;19.50;10.23;;;;;;;26.63;36.52;101856.28;4998723;28;20030;-82
2022/06/15 05:38:40;;;;;;;17.50;9.82;;;;;;;27.14;35.01;101857.38;4998481;28;20018;-81
2022/06/15 05:41:05;;;;;;;19.13;9.40;;;;;;;27.40;33.83;101811.03;5016240;28;20083;-82
2022/06/15 05:43:32;;;;;;;21.40;9.75;;;;;;;27.22;34.38;101816.69;4998629;28;20065;-82
2022/06/15 05:45:58;;;;;;;21.85;9.90;;;;;;;27.70;33.41;101827.78;4998427;28;20022;-81
2022/06/15 05:48:23;;;;;;;20.92;9.80;;;;;;;28.45;32.31;101861.97;5015921;28;20037;-81
2022/06/15 05:50:49;;;;;;;19.48;9.93;;;;;;;28.20;32.14;101804.84;4998677;28;20026;-81
2022/06/15 05:53:14;;;;;;;19.00;10.10;;;;;;;28.05;32.55;101860.69;5015578;28;20415;-80
2022/06/15 05:55:39;;;;;;;20.08;10.45;;;;;;;27.78;33.10;101832.16;4998403;28;20589;-82
2022/06/15 05:58:05;;;;;;;17.90;10.52;;;;;;;27.72;32.61;101834.53;5015952;28;20026;-82
2022/06/15 06:00:33;;;;;;;21.52;10.57;;;;;;;27.76;33.06;101866.84;5015797;28;20026;-82
2022/06/15 06:02:58;;;;;;;17.30;9.63;;;;;;;28.13;33.42;101823.41;5015872;28;20030;-80
2022/06/15 06:05:24;;;;;;;22.48;10.15;;;;;;;28.77;32.14;101860.63;4997479;28;20032;-80
2022/06/15 06:07:50;;;;;;;13.25;7.13;;;;;;;29.07;31.98;101829.38;4998189;28;20043;-79
2022/06/15 06:10:16;;;;;;;18.35;8.93;;;;;;;29.58;32.16;101830.91;4998009;28;20121;-81
2022/06/15 06:12:42;;;;;;;17.10;10.05;;;;;;;29.69;31.06;101862.31;5015684;28;20124;-81
2022/06/15 06:15:08;;;;;;;18.40;10.15;;;;;;;29.70;30.64;101819.53;4998051;28;20028;-81
2022/06/15 06:17:33;;;;;;;21.73;10.52;;;;;;;29.91;30.09;101829.22;4997969;28;20482;-81
2022/06/15 06:20:01;;;;;;;17.15;9.70;;;;;;;29.79;30.49;101822.81;4997789;28;20076;-80
2022/06/15 06:22:27;;;;;;;21.33;9.93;;;;;;;30.20;31.05;101856.59;5014052;28;20034;-79
2022/06/15 06:24:52;;;;;;;17.13;10.02;;;;;;;30.38;30.08;101848.81;4997501;28;20616;-80
2022/06/15 06:27:18;;;;;;;20.38;9.90;;;;;;;30.55;29.56;101854.59;4997110;28;20429;-80
2022/06/15 06:29:43;;;;;;;25.33;11.25;;;;;;;30.65;28.61;101854.22;4997897;28;20370;-80
2022/06/15 06:32:27;;;;;;;22.42;10.40;;;;;;;30.68;31.65;101832.47;4997490;28;20120;-81
2022/06/15 06:41:57;;;;;;;20.35;10.35;;;;;;;31.45;28.10;101847.78;5014989;28;20040;-82
2022/06/15 06:44:44;;;;;;;22.10;10.32;;;;;;;31.49;29.74;101858.88;4973234;28;20106;-83
2022/06/15 06:47:40;;;;;;;16.50;9.20;;;;;;;31.72;30.17;101861.88;4957341;28;20037;-83
2022/06/15 06:50:22;;;;;;;25.17;10.50;;;;;;;31.30;28.96;101722.59;4973714;28;20394;-85
2022/06/15 06:52:50;;;;;;;18.08;9.68;;;;;;;31.99;27.52;101867.94;4915238;29;20095;-84
2022/06/15 06:55:16;;;;;;;23.27;10.65;;;;;;;30.63;27.94;101710.41;4915858;29;20452;-83
2022/06/15 06:57:44;;;;;;;14.40;8.25;;;;;;;31.06;28.10;101756.09;4916368;29;20040;-84
2022/06/15 07:00:20;;;;;;;21.67;10.60;;;;;;;31.30;27.91;101751.13;4916171;29;20206;-83
2022/06/15 07:02:57;;;;;;;24.08;11.18;;;;;;;32.18;28.26;101875.03;4915594;29;20118;-83
2022/06/15 07:05:24;;;;;;;24.63;11.02;;;;;;;31.95;26.14;101851.50;4912922;23;20040;-79
2022/06/15 07:07:49;;;;;;;18.98;10.43;;;;;;;31.57;27.05;101826.63;4957338;28;20050;-80
2022/06/15 07:10:27;;;;;;;20.77;10.52;;;;;;;30.91;26.89;101837.41;4975548;28;20035;-80
2022/06/15 07:13:11;;;;;;;21.38;10.18;;;;;;;30.37;28.60;101748.56;4975350;28;20034;-80
2022/06/15 07:15:51;;;;;;;21.83;10.00;;;;;;;30.88;30.04;101827.97;4975276;28;20058;-80
2022/06/15 07:18:17;;;;;;;17.75;9.48;;;;;;;31.63;28.93;101849.78;5006296;23;20505;-79
2022/06/15 07:20:44;;;;;;;20.90;10.05;;;;;;;32.25;26.24;101862.47;4996881;28;20172;-81
2022/06/15 07:23:09;;;;;;;23.42;9.70;;;;;;;32.32;27.13;101856.28;4979328;28;20034;-78
2022/06/15 07:25:35;;;;;;;19.40;8.88;;;;;;;32.59;26.97;101884.47;5014199;28;20559;-79
2022/06/15 07:28:02;;;;;;;22.70;9.80;;;;;;;32.57;25.58;101864.34;5014042;28;20030;-80
2022/06/15 07:30:28;;;;;;;18.30;8.35;;;;;;;32.65;26.52;101882.78;4996495;28;20025;-79
2022/06/15 07:32:54;;;;;;;24.73;9.02;;;;;;;32.02;25.25;101856.00;4996337;28;20026;-81
2022/06/15 07:35:22;;;;;;;24.08;10.20;;;;;;;31.41;26.43;101889.28;5014271;28;20487;-80
2022/06/15 07:37:48;;;;;;;24.50;10.43;;;;;;;30.93;26.81;101878.03;4996033;28;20026;-79
2022/06/15 07:40:15;;;;;;;18.45;10.23;;;;;;;29.99;27.85;101866.34;4996527;28;20381;-78
2022/06/15 07:42:42;;;;;;;18.20;9.40;;;;;;;28.36;29.26;101852.47;4996305;28;20052;-80
2022/06/15 07:45:09;;;;;;;21.00;9.05;;;;;;;26.87;32.66;101868.53;5013789;28;20098;-79
2022/06/15 07:50:18;;;;;;;19.88;8.30;;;;;;;24.74;36.66;101878.16;5013956;28;20496;-78
2022/06/15 07:52:46;;;;;;;21.23;8.80;;;;;;;23.98;38.74;101888.81;5013714;28;20022;-80
2022/06/15 07:55:14;;;;;;;17.55;8.25;;;;;;;23.37;40.45;101889.75;5013639;28;20114;-78
2022/06/15 07:57:41;;;;;;;21.55;10.10;;;;;;;22.89;41.37;101883.13;5013690;28;20133;-78
2022/06/15 08:00:08;;;;;;;17.55;8.63;;;;;;;22.74;41.92;101876.72;5013579;28;20029;-77
2022/06/15 08:02:33;;;;;;;25.30;9.00;;;;;;;22.72;43.79;101889.22;5013445;28;20030;-77
2022/06/15 08:04:58;;;;;;;21.08;8.23;;;;;;;22.55;45.28;101898.75;4995540;28;20401;-77
2022/06/15 08:07:24;;;;;;;19.23;9.40;;;;;;;22.21;43.40;101878.28;5013542;28;20389;-78
2022/06/15 08:09:50;;;;;;;19.42;8.98;;;;;;;22.00;43.41;101893.47;5013396;28;20084;-77
2022/06/15 08:12:16;;;;;;;18.05;8.00;;;;;;;21.81;43.63;101889.09;4995709;28;20046;-78
2022/06/15 08:14:50;;;;;;;22.25;8.18;;;;;;;21.65;44.25;101888.91;5013375;28;20030;-78
2022/06/15 08:17:24;;;;;;;19.33;8.32;;;;;;;21.67;45.85;101889.56;5013316;28;20037;-78
2022/06/15 08:19:56;;;;;;;18.95;7.95;;;;;;;21.60;43.55;101878.78;4995558;28;20038;-79
2022/06/15 08:22:22;;;;;;;18.95;7.63;;;;;;;21.62;43.96;101883.91;5013174;28;20526;-78
2022/06/15 08:24:49;;;;;;;22.60;9.40;;;;;;;21.18;44.55;101855.50;4995327;28;20069;-77
2022/06/15 08:27:49;;;;;;;19.13;8.80;;;;;;;20.52;44.05;101747.75;5012995;28;20022;-79
2022/06/15 08:30:26;;;;;;;17.10;8.25;;;;;;;20.27;44.51;101708.94;4917394;29;20135;-79
2022/06/15 08:32:57;;;;;;;18.65;7.65;;;;;;;20.42;46.60;101722.47;4933460;29;20521;-80
2022/06/15 08:35:25;;;;;;;;;;;;;;;21.59;45.11;101881.56;4933758;29;20032;-79
2022/06/15 08:38:26;;;;;;;21.90;7.93;;;;;;;21.67;44.83;101882.50;4933566;29;20401;-79
2022/06/15 08:51:02;;;;;;;19.30;7.40;;;;;;;21.12;45.12;101766.72;4915297;29;20080;-82
2022/06/15 08:53:56;;;;;;;19.77;8.02;;;;;;;21.87;46.47;101882.44;4914465;29;20048;-82
2022/06/15 08:57:07;;;;;;;19.42;7.55;;;;;;;21.74;47.92;101845.97;4914377;29;20048;-82
2022/06/15 09:00:09;;;;;;;17.45;7.93;;;;;;;21.94;44.33;101889.63;4915327;28;20059;-81
2022/06/15 09:06:30;;;;;;;18.35;6.95;;;;;;;21.94;45.99;101878.28;4952065;29;20042;-83
2022/06/15 09:09:08;;;;;;;17.75;7.80;;;;;;;21.85;45.00;101874.72;4952088;29;20074;-82
2022/06/15 09:11:47;;;;;;;16.08;7.68;;;;;;;21.72;44.67;101872.38;4952176;29;20031;-81
2022/06/15 09:14:43;;;;;;;22.92;7.82;;;;;;;21.76;45.54;101883.47;4951926;28;20045;-82
2022/06/15 09:17:13;;;;;;;31.10;8.43;;;;;;;21.72;45.21;101879.44;4936014;29;20219;-80
2022/06/15 09:19:46;;;;;;;21.23;8.03;;;;;;;21.66;44.35;101869.53;4966444;28;20042;-82
2022/06/15 09:22:19;;;;;;;16.60;8.63;;;;;;;21.37;43.29;101831.00;4992711;28;20031;-80
2022/06/15 09:24:56;;;;;;;18.83;7.13;;;;;;;21.58;46.33;101845.75;4992902;28;20026;-82
2022/06/15 09:27:40;;;;;;;17.45;7.45;;;;;;;21.78;44.94;101871.00;4993086;28;20023;-82
2022/06/15 09:30:11;;;;;;;16.10;7.95;;;;;;;21.84;45.74;101875.69;4992825;28;20054;-82
2022/06/15 09:32:41;;;;;;;19.42;7.88;;;;;;;21.67;44.96;101861.47;4992894;28;20034;-80
2022/06/15 09:35:12;;;;;;;17.17;7.72;;;;;;;21.85;45.19;101873.88;4991875;28;20065;-83
2022/06/15 09:37:40;;;;;;;18.08;7.80;;;;;;;21.88;43.96;101874.41;4992683;28;20023;-80
2022/06/15 09:40:07;;;;;;;24.63;7.30;;;;;;;21.45;45.99;101796.97;4991193;28;20097;-81
2022/06/15 09:43:14;;;;;;;16.80;7.78;;;;;;;21.81;44.39;101875.94;4992530;28;20030;-81
2022/06/15 09:46:09;;;;;;;16.42;7.35;;;;;;;21.67;44.43;101874.63;4898013;29;20044;-81
2022/06/15 09:48:49;;;;;;;22.00;7.68;;;;;;;21.43;43.07;101833.06;4932740;29;20040;-81
2022/06/15 09:51:48;;;;;;;20.92;7.10;;;;;;;21.67;44.68;101868.53;4932680;29;20073;-81
2022/06/15 09:54:24;;;;;;;17.00;6.53;;;;;;;21.64;44.98;101845.19;4857636;29;20474;-81
2022/06/15 09:56:50;;;;;;;18.88;7.75;;;;;;;21.82;45.64;101858.38;4841943;29;20045;-81
2022/06/15 09:59:19;;;;;;;15.85;6.97;;;;;;;21.60;44.51;101814.88;4857646;29;20132;-81
2022/06/15 10:01:48;;;;;;;17.85;7.70;;;;;;;21.84;41.50;101862.53;4860687;29;20513;-83
2022/06/15 10:04:23;;;;;;;18.58;7.35;;;;;;;21.84;43.72;101875.69;4860307;29;20578;-82
2022/06/15 10:06:52;;;;;;;14.23;6.82;;;;;;;21.85;43.54;101858.94;4860694;29;20525;-81
2022/06/15 10:09:28;;;;;;;19.27;6.97;;;;;;;21.96;43.80;101868.44;4860518;29;20038;-81
2022/06/15 10:12:55;;;;;;;21.63;7.25;;;;;;;21.98;45.55;101869.09;4860280;29;20045;-81
2022/06/15 10:14:42;;;;;;;15.98;7.20;;;;;;;21.87;44.92;101837.75;4860458;29;20034;-85
2022/06/15 10:39:32;;;;;;;13.73;6.25;;;;;;;22.24;44.48;101845.59;1414338;27;20109;-80
2022/06/15 10:42:07;;;;;;;19.05;7.60;;;;;;;22.36;44.82;101854.94;4858546;29;20048;-78
2022/06/15 10:44:38;;;;;;;15.55;7.30;;;;;;;22.29;44.58;101841.53;4845923;29;20029;-76
2022/06/15 10:47:07;;;;;;;15.75;7.15;;;;;;;22.05;43.73;101807.88;4862370;29;20037;-80
2022/06/15 10:49:43;;;;;;;17.98;6.72;;;;;;;22.52;45.05;101857.75;4845583;29;20077;-82
2022/06/15 10:52:40;;;;;;;18.67;6.90;;;;;;;22.60;43.24;101838.56;4862359;29;20074;-84
2022/06/15 11:04:22;;;;;;;15.73;7.40;;;;;;;22.75;41.61;101844.13;4823609;29;20055;-83
2022/06/15 11:06:50;;;;;;;23.10;7.38;;;;;;;22.71;42.44;101853.28;4823191;29;20045;-82
2022/06/15 11:09:18;;;;;;;16.60;6.88;;;;;;;22.73;43.54;101848.72;4822786;29;20121;-82
2022/06/15 11:11:44;;;;;;;19.35;7.75;;;;;;;22.54;43.06;101818.94;4822063;29;20513;-81
2022/06/15 11:14:27;;;;;;;16.83;6.93;;;;;;;22.71;43.96;101840.13;4807651;29;20035;-81
2022/06/15 11:19:56;;;;;;;20.20;6.45;;;;;;;22.59;43.37;101811.41;4810155;29;20122;-80
2022/06/15 11:22:26;;;;;;;20.25;6.65;;;;;;;22.86;44.88;101834.22;4822859;29;20030;-79
2022/06/15 11:25:01;;;;;;;15.32;7.20;;;;;;;22.88;44.54;101834.06;4807224;29;20046;-80
2022/06/15 11:27:31;;;;;;;21.77;6.68;;;;;;;22.75;45.06;101808.09;4807317;29;20034;-80
2022/06/15 11:30:03;;;;;;;16.77;6.95;;;;;;;22.97;42.93;101829.69;4834828;23;20052;-79
2022/06/15 11:32:51;;;;;;;16.33;6.82;;;;;;;22.99;42.93;101833.81;4878633;29;20110;-80
2022/06/15 11:35:21;;;;;;;19.42;7.40;;;;;;;22.63;42.52;101777.72;4866541;29;20030;-82
2022/06/15 11:37:57;;;;;;;19.83;7.57;;;;;;;22.90;42.77;101832.09;4861488;29;20037;-81
2022/06/15 11:40:53;;;;;;;13.82;6.43;;;;;;;22.95;43.32;101829.00;4860282;29;20417;-80
2022/06/15 11:43:20;;;;;;;19.33;6.70;;;;;;;22.92;44.01;101821.44;4859996;29;20068;-81
2022/06/15 11:45:58;;;;;;;18.75;6.88;;;;;;;23.02;44.17;101836.16;4861014;29;20053;-81
2022/06/15 11:48:43;;;;;;;15.55;6.72;;;;;;;22.90;43.04;101809.22;4870421;29;20438;-78
2022/06/15 11:51:31;;;;;;;16.85;6.78;;;;;;;23.18;43.58;101836.25;4878629;29;20128;-80
2022/06/15 11:54:30;;;;;;;14.77;6.57;;;;;;;22.92;42.11;101805.63;4878786;29;20101;-82
2022/06/15 11:57:13;;;;;;;23.77;7.35;;;;;;;23.04;42.16;101836.00;4824886;29;20063;-80
2022/06/15 12:00:25;;;;;;;20.15;8.25;;;;;;;22.99;41.33;101831.19;4840511;29;20046;-80
2022/06/15 12:06:14;;;;;;;15.05;6.47;;;;;;;23.13;41.91;101828.00;4931842;23;20513;-80
2022/06/15 12:08:59;;;;;;;;;;;;;;;;;;;;;
2022/06/15 12:15:00;;;;;;;16.13;6.60;;;;;;;23.10;42.70;101778.22;4879651;29;20048;-83
2022/06/15 12:18:02;;;;;;;16.00;6.68;;;;;;;23.35;43.05;101818.75;4840244;29;20050;-84
2022/06/15 12:21:06;;;;;;;22.98;6.70;;;;;;;22.53;43.17;101683.03;4840166;29;20042;-82
2022/06/15 12:23:59;;;;;;;15.20;6.75;;;;;;;23.35;42.64;101810.84;4839964;29;20128;-80
2022/06/15 12:26:43;;;;;;;19.25;6.55;;;;;;;23.45;42.40;101808.91;4839868;29;20514;-80
2022/06/15 12:29:51;;;;;;;19.00;6.97;;;;;;;23.42;41.50;101803.16;4839935;29;20081;-81
2022/06/15 12:36:08;;;;;;;16.02;6.18;;;;;;;23.44;42.23;101791.44;4897708;29;20168;-84
2022/06/15 12:39:10;;;;;;;15.15;6.63;;;;;;;23.57;41.10;101795.44;4880163;29;20059;-83
2022/06/15 12:42:22;;;;;;;15.77;7.25;;;;;;;22.41;40.77;101607.91;4897814;29;20051;-82
2022/06/15 12:45:17;;;;;;;21.00;7.05;;;;;;;22.63;43.21;101635.53;4858197;29;20423;-82
2022/06/15 12:48:18;;;;;;;17.30;6.47;;;;;;;23.31;42.32;101729.63;4858376;29;20427;-80
2022/06/15 12:51:02;;;;;;;18.98;6.70;;;;;;;22.67;41.75;101620.25;4874359;29;20037;-81
2022/06/15 12:56:57;;;;;;;12.18;6.35;;;;;;;23.68;41.63;101793.38;4896599;29;20063;-84
2022/06/15 13:00:00;;;;;;;16.70;6.45;;;;;;;23.74;42.53;101797.22;4880661;29;20120;-83
2022/06/15 13:03:03;;;;;;;15.50;6.30;;;;;;;23.70;40.96;101803.81;4897387;29;20060;-82
2022/06/15 13:05:48;;;;;;;15.13;6.00;;;;;;;23.48;42.14;101760.31;4897347;29;20028;-84
2022/06/15 13:08:33;;;;;;;17.77;7.05;;;;;;;23.33;39.71;101727.63;4880543;29;20084;-84
2022/06/15 13:13:52;;;;;;;14.97;5.67;;;;;;;23.32;41.10;101736.53;4877638;29;20045;-84
2022/06/15 13:16:41;;;;;;;17.33;6.63;;;;;;;23.69;40.46;101799.50;4877414;29;20104;-84
2022/06/15 13:19:25;;;;;;;16.60;5.85;;;;;;;23.80;40.95;101803.69;4877869;29;20025;-81
2022/06/15 13:21:54;;;;;;;15.55;6.47;;;;;;;23.83;40.10;101790.16;4878300;29;20574;-84
2022/06/15 13:24:20;;;;;;;11.52;5.57;;;;;;;23.82;39.16;101775.31;4878465;29;20025;-83
2022/06/15 13:26:52;;;;;;;15.27;5.95;;;;;;;23.95;40.23;101789.69;4878639;29;20077;-84